Terminal Aerodrome Forecast
Issued by NWS

Home | Current Version | Previous Version | Text Only | Print | Product List | Glossary On
Versions: 1 2 3 4 5 6 7 8 9 10 11 12 13
650
FTUS43 KMQT 251120
TAFSAW
TAF
KSAW 251120Z 2512/2612 17009KT P6SM BKN150
     FM251600 18011G19KT P6SM BKN200
     FM260100 17007KT P6SM OVC060
     FM260300 16003KT 6SM -SHRA OVC045
     FM260400 00000KT 6SM -SHRA OVC030
     FM260600 00000KT P6SM OVC008
     FM260700 00000KT 4SM -RA OVC008
     FM260900 00000KT 1 1/2SM -RA OVC003=

USA.gov is the U.S. government's official web portal to all federal, state and local government web resources and services.